ヤクーツク の空港の天気 - METARとTAF

ヤクーツク空港 ( UEEE / YKS ) - ロシア ヤクーツク
飛行場実況気象(Metar)
観測時間08/05 07:30 YAKT (08/04 22:30 UTC)
風向・風速北北西 1m/s
視程10km以上
天気現象
なし
気温17℃
湿度63%
気圧1018hPa
METARUEEE 042230Z 34001MPS CAVOK 17/10 Q1018 R23L/09//60 NOSIG RMK QFE755
過去の天気等 Google飛行場航空写真 Wunderground天気予報

過去48時間のMETAR

飛行場予報(TAF)
発表時間: 8/05 05:00 YAKT (8/04 20:00 UTC)
予報対象時間: 5日6時 YAKT ~ 6日12時 YAKT
風向・風速北西 3m/s
視程3200m
天気現象
なし
TAF UEEE 042000Z 0421/0603 31003MPS 3200 FU NSC